sensor_id;sensor_type;location;lat;lon;timestamp;P1;durP1;ratioP1;P2;durP2;ratioP2
48647;SDS011;34437;-33.956;151.076;2022-10-20T00:01:13;2.03;;;0.85;;
48647;SDS011;34437;-33.956;151.076;2022-10-20T00:03:37;3.10;;;0.85;;
48647;SDS011;34437;-33.956;151.076;2022-10-20T00:06:09;1.73;;;0.82;;
48647;SDS011;34437;-33.956;151.076;2022-10-20T00:08:33;6.43;;;0.77;;
48647;SDS011;34437;-33.956;151.076;2022-10-20T00:10:56;1.67;;;0.50;;
48647;SDS011;34437;-33.956;151.076;2022-10-20T00:13:19;3.28;;;1.23;;
48647;SDS011;34437;-33.956;151.076;2022-10-20T00:15:46;1.52;;;0.85;;
48647;SDS011;34437;-33.956;151.076;2022-10-20T00:18:13;2.60;;;1.38;;
48647;SDS011;34437;-33.956;151.076;2022-10-20T00:20:38;3.78;;;2.10;;
48647;SDS011;34437;-33.956;151.076;2022-10-20T00:23:01;2.90;;;1.73;;
48647;SDS011;34437;-33.956;151.076;2022-10-20T00:25:23;10.52;;;1.52;;
48647;SDS011;34437;-33.956;151.076;2022-10-20T00:27:46;4.05;;;1.77;;
48647;SDS011;34437;-33.956;151.076;2022-10-20T00:30:09;5.07;;;1.60;;
48647;SDS011;34437;-33.956;151.076;2022-10-20T00:32:31;3.92;;;1.58;;
48647;SDS011;34437;-33.956;151.076;2022-10-20T00:34:54;1.88;;;1.00;;
48647;SDS011;34437;-33.956;151.076;2022-10-20T00:37:17;2.90;;;1.15;;
48647;SDS011;34437;-33.956;151.076;2022-10-20T00:39:39;1.70;;;1.08;;
48647;SDS011;34437;-33.956;151.076;2022-10-20T00:42:02;2.45;;;1.20;;
48647;SDS011;34437;-33.956;151.076;2022-10-20T00:47:27;0.75;;;0.73;;
48647;SDS011;34437;-33.956;151.076;2022-10-20T00:52:46;1.98;;;0.80;;
48647;SDS011;34437;-33.956;151.076;2022-10-20T00:55:10;1.40;;;0.75;;
48647;SDS011;34437;-33.956;151.076;2022-10-20T00:57:37;0.75;;;0.52;;
48647;SDS011;34437;-33.956;151.076;2022-10-20T01:00:02;1.10;;;0.60;;
48647;SDS011;34437;-33.956;151.076;2022-10-20T01:02:28;0.85;;;0.60;;
48647;SDS011;34437;-33.956;151.076;2022-10-20T01:04:51;1.08;;;0.70;;
48647;SDS011;34437;-33.956;151.076;2022-10-20T01:07:14;0.63;;;0.55;;
48647;SDS011;34437;-33.956;151.076;2022-10-20T01:09:36;0.90;;;0.60;;
48647;SDS011;34437;-33.956;151.076;2022-10-20T01:12:04;1.00;;;0.60;;
48647;SDS011;34437;-33.956;151.076;2022-10-20T01:14:50;0.55;;;0.55;;
48647;SDS011;34437;-33.956;151.076;2022-10-20T01:17:45;0.70;;;0.70;;
48647;SDS011;34437;-33.956;151.076;2022-10-20T01:20:27;0.95;;;0.77;;
48647;SDS011;34437;-33.956;151.076;2022-10-20T01:26:26;0.70;;;0.60;;
48647;SDS011;34437;-33.956;151.076;2022-10-20T01:29:00;0.50;;;0.50;;
48647;SDS011;34437;-33.956;151.076;2022-10-20T01:31:43;2.85;;;1.27;;
48647;SDS011;34437;-33.956;151.076;2022-10-20T01:37:13;2.70;;;1.23;;
48647;SDS011;34437;-33.956;151.076;2022-10-20T01:39:35;3.45;;;1.33;;
48647;SDS011;34437;-33.956;151.076;2022-10-20T01:42:18;2.80;;;1.40;;
48647;SDS011;34437;-33.956;151.076;2022-10-20T01:44:44;1.48;;;0.98;;
48647;SDS011;34437;-33.956;151.076;2022-10-20T01:47:08;2.85;;;1.00;;
48647;SDS011;34437;-33.956;151.076;2022-10-20T01:49:34;0.88;;;0.80;;
48647;SDS011;34437;-33.956;151.076;2022-10-20T01:51:57;1.65;;;0.93;;
48647;SDS011;34437;-33.956;151.076;2022-10-20T01:54:22;6.22;;;1.20;;
48647;SDS011;34437;-33.956;151.076;2022-10-20T01:57:02;2.70;;;1.58;;
48647;SDS011;34437;-33.956;151.076;2022-10-20T02:07:53;2.00;;;1.05;;
48647;SDS011;34437;-33.956;151.076;2022-10-20T02:10:28;1.55;;;0.80;;
48647;SDS011;34437;-33.956;151.076;2022-10-20T02:12:59;1.67;;;1.15;;
48647;SDS011;34437;-33.956;151.076;2022-10-20T02:15:27;2.17;;;0.98;;
48647;SDS011;34437;-33.956;151.076;2022-10-20T02:17:54;2.58;;;1.27;;
48647;SDS011;34437;-33.956;151.076;2022-10-20T02:20:25;1.45;;;1.00;;
48647;SDS011;34437;-33.956;151.076;2022-10-20T02:22:49;2.55;;;1.00;;
48647;SDS011;34437;-33.956;151.076;2022-10-20T02:25:13;2.05;;;1.35;;
48647;SDS011;34437;-33.956;151.076;2022-10-20T02:27:36;1.80;;;1.17;;
48647;SDS011;34437;-33.956;151.076;2022-10-20T02:30:06;1.88;;;1.10;;
48647;SDS011;34437;-33.956;151.076;2022-10-20T02:32:31;2.20;;;1.58;;
48647;SDS011;34437;-33.956;151.076;2022-10-20T02:34:55;2.55;;;1.10;;
48647;SDS011;34437;-33.956;151.076;2022-10-20T02:37:17;2.00;;;1.15;;
48647;SDS011;34437;-33.956;151.076;2022-10-20T02:39:40;2.50;;;1.25;;
48647;SDS011;34437;-33.956;151.076;2022-10-20T02:42:03;6.43;;;1.15;;
48647;SDS011;34437;-33.956;151.076;2022-10-20T02:44:25;3.88;;;1.30;;
48647;SDS011;34437;-33.956;151.076;2022-10-20T02:46:48;2.15;;;1.08;;
48647;SDS011;34437;-33.956;151.076;2022-10-20T02:49:10;2.75;;;1.38;;
48647;SDS011;34437;-33.956;151.076;2022-10-20T02:51:33;3.95;;;1.00;;
48647;SDS011;34437;-33.956;151.076;2022-10-20T02:53:55;1.80;;;1.17;;
48647;SDS011;34437;-33.956;151.076;2022-10-20T02:56:18;2.13;;;1.08;;
48647;SDS011;34437;-33.956;151.076;2022-10-20T02:58:42;3.03;;;1.25;;
48647;SDS011;34437;-33.956;151.076;2022-10-20T03:01:04;3.33;;;1.48;;
48647;SDS011;34437;-33.956;151.076;2022-10-20T03:03:27;7.47;;;1.40;;
48647;SDS011;34437;-33.956;151.076;2022-10-20T03:05:50;2.97;;;1.50;;
48647;SDS011;34437;-33.956;151.076;2022-10-20T03:08:12;3.38;;;1.15;;
48647;SDS011;34437;-33.956;151.076;2022-10-20T03:10:35;3.40;;;1.40;;
48647;SDS011;34437;-33.956;151.076;2022-10-20T03:12:58;2.90;;;1.00;;
48647;SDS011;34437;-33.956;151.076;2022-10-20T03:15:21;2.58;;;1.02;;
48647;SDS011;34437;-33.956;151.076;2022-10-20T03:17:43;3.40;;;0.90;;
48647;SDS011;34437;-33.956;151.076;2022-10-20T03:20:06;1.20;;;0.70;;
48647;SDS011;34437;-33.956;151.076;2022-10-20T03:22:29;1.07;;;0.80;;
48647;SDS011;34437;-33.956;151.076;2022-10-20T03:24:51;2.05;;;1.15;;
48647;SDS011;34437;-33.956;151.076;2022-10-20T03:27:14;2.67;;;1.45;;
48647;SDS011;34437;-33.956;151.076;2022-10-20T03:29:37;2.20;;;1.23;;
48647;SDS011;34437;-33.956;151.076;2022-10-20T03:31:59;2.17;;;1.38;;
48647;SDS011;34437;-33.956;151.076;2022-10-20T03:34:22;2.60;;;1.10;;
48647;SDS011;34437;-33.956;151.076;2022-10-20T03:36:44;7.32;;;1.20;;
48647;SDS011;34437;-33.956;151.076;2022-10-20T03:39:07;3.83;;;1.08;;
48647;SDS011;34437;-33.956;151.076;2022-10-20T03:41:29;1.85;;;1.08;;
48647;SDS011;34437;-33.956;151.076;2022-10-20T03:43:52;1.30;;;0.95;;
48647;SDS011;34437;-33.956;151.076;2022-10-20T03:46:14;2.22;;;1.25;;
48647;SDS011;34437;-33.956;151.076;2022-10-20T03:48:37;5.07;;;1.30;;
48647;SDS011;34437;-33.956;151.076;2022-10-20T03:51:01;1.70;;;1.10;;
48647;SDS011;34437;-33.956;151.076;2022-10-20T03:55:46;1.20;;;0.93;;
48647;SDS011;34437;-33.956;151.076;2022-10-20T03:58:09;1.70;;;0.80;;
48647;SDS011;34437;-33.956;151.076;2022-10-20T04:00:31;1.33;;;0.68;;
48647;SDS011;34437;-33.956;151.076;2022-10-20T04:02:54;5.00;;;0.90;;
48647;SDS011;34437;-33.956;151.076;2022-10-20T04:05:18;2.05;;;0.77;;
48647;SDS011;34437;-33.956;151.076;2022-10-20T04:07:41;1.45;;;1.05;;
48647;SDS011;34437;-33.956;151.076;2022-10-20T04:10:03;0.52;;;0.40;;
48647;SDS011;34437;-33.956;151.076;2022-10-20T04:12:26;0.90;;;0.70;;
48647;SDS011;34437;-33.956;151.076;2022-10-20T04:14:49;0.45;;;0.43;;
48647;SDS011;34437;-33.956;151.076;2022-10-20T04:17:12;0.40;;;0.40;;
48647;SDS011;34437;-33.956;151.076;2022-10-20T04:19:35;4.13;;;0.63;;
48647;SDS011;34437;-33.956;151.076;2022-10-20T04:21:57;1.33;;;0.82;;
48647;SDS011;34437;-33.956;151.076;2022-10-20T04:24:20;0.57;;;0.40;;
48647;SDS011;34437;-33.956;151.076;2022-10-20T04:26:42;0.45;;;0.45;;
48647;SDS011;34437;-33.956;151.076;2022-10-20T04:29:05;3.50;;;0.50;;
48647;SDS011;34437;-33.956;151.076;2022-10-20T04:31:27;2.33;;;0.60;;
48647;SDS011;34437;-33.956;151.076;2022-10-20T04:33:50;1.08;;;0.40;;
48647;SDS011;34437;-33.956;151.076;2022-10-20T04:36:12;6.40;;;0.70;;
48647;SDS011;34437;-33.956;151.076;2022-10-20T04:38:35;2.53;;;0.75;;
48647;SDS011;34437;-33.956;151.076;2022-10-20T04:40:59;1.00;;;0.60;;
48647;SDS011;34437;-33.956;151.076;2022-10-20T04:43:24;2.45;;;0.77;;
48647;SDS011;34437;-33.956;151.076;2022-10-20T04:45:47;3.28;;;0.90;;
48647;SDS011;34437;-33.956;151.076;2022-10-20T04:48:09;0.98;;;0.80;;
48647;SDS011;34437;-33.956;151.076;2022-10-20T04:50:32;3.28;;;1.05;;
48647;SDS011;34437;-33.956;151.076;2022-10-20T04:52:54;7.82;;;1.70;;
48647;SDS011;34437;-33.956;151.076;2022-10-20T04:55:18;4.35;;;0.80;;
48647;SDS011;34437;-33.956;151.076;2022-10-20T04:57:41;4.05;;;0.88;;
48647;SDS011;34437;-33.956;151.076;2022-10-20T05:00:03;5.22;;;0.90;;
48647;SDS011;34437;-33.956;151.076;2022-10-20T05:02:26;2.60;;;0.80;;
48647;SDS011;34437;-33.956;151.076;2022-10-20T05:04:50;0.98;;;0.68;;
48647;SDS011;34437;-33.956;151.076;2022-10-20T05:07:12;1.38;;;0.93;;
48647;SDS011;34437;-33.956;151.076;2022-10-20T05:09:35;2.13;;;0.75;;
48647;SDS011;34437;-33.956;151.076;2022-10-20T05:12:01;1.23;;;0.60;;
48647;SDS011;34437;-33.956;151.076;2022-10-20T05:14:23;0.35;;;0.35;;
48647;SDS011;34437;-33.956;151.076;2022-10-20T05:16:46;1.50;;;0.70;;
48647;SDS011;34437;-33.956;151.076;2022-10-20T05:19:08;2.10;;;0.70;;
48647;SDS011;34437;-33.956;151.076;2022-10-20T05:21:32;1.58;;;0.95;;
48647;SDS011;34437;-33.956;151.076;2022-10-20T05:24:04;1.10;;;0.70;;
48647;SDS011;34437;-33.956;151.076;2022-10-20T05:26:27;3.33;;;1.02;;
48647;SDS011;34437;-33.956;151.076;2022-10-20T05:28:54;3.08;;;1.00;;
48647;SDS011;34437;-33.956;151.076;2022-10-20T05:31:18;3.00;;;0.85;;
48647;SDS011;34437;-33.956;151.076;2022-10-20T05:34:19;1.70;;;0.70;;
48647;SDS011;34437;-33.956;151.076;2022-10-20T05:36:42;1.75;;;0.95;;
48647;SDS011;34437;-33.956;151.076;2022-10-20T05:39:04;1.80;;;0.70;;
48647;SDS011;34437;-33.956;151.076;2022-10-20T05:41:28;2.08;;;0.75;;
48647;SDS011;34437;-33.956;151.076;2022-10-20T05:43:52;1.35;;;0.73;;
48647;SDS011;34437;-33.956;151.076;2022-10-20T05:46:19;1.02;;;0.75;;
48647;SDS011;34437;-33.956;151.076;2022-10-20T05:48:42;1.95;;;1.20;;
48647;SDS011;34437;-33.956;151.076;2022-10-20T05:53:34;1.38;;;1.02;;
48647;SDS011;34437;-33.956;151.076;2022-10-20T05:56:02;1.10;;;0.70;;
48647;SDS011;34437;-33.956;151.076;2022-10-20T05:58:25;1.10;;;0.93;;
48647;SDS011;34437;-33.956;151.076;2022-10-20T06:00:47;1.77;;;0.75;;
48647;SDS011;34437;-33.956;151.076;2022-10-20T06:03:13;1.85;;;0.70;;
48647;SDS011;34437;-33.956;151.076;2022-10-20T06:05:36;2.20;;;0.93;;
48647;SDS011;34437;-33.956;151.076;2022-10-20T06:07:58;1.35;;;0.75;;
48647;SDS011;34437;-33.956;151.076;2022-10-20T06:10:21;1.38;;;0.70;;
48647;SDS011;34437;-33.956;151.076;2022-10-20T06:12:45;0.50;;;0.50;;
48647;SDS011;34437;-33.956;151.076;2022-10-20T06:15:08;1.60;;;0.70;;
48647;SDS011;34437;-33.956;151.076;2022-10-20T06:17:31;0.93;;;0.70;;
48647;SDS011;34437;-33.956;151.076;2022-10-20T06:19:53;1.85;;;1.02;;
48647;SDS011;34437;-33.956;151.076;2022-10-20T06:22:16;1.75;;;1.00;;
48647;SDS011;34437;-33.956;151.076;2022-10-20T06:24:38;1.63;;;0.88;;
48647;SDS011;34437;-33.956;151.076;2022-10-20T06:27:01;3.13;;;0.90;;
48647;SDS011;34437;-33.956;151.076;2022-10-20T06:29:23;1.52;;;1.00;;
48647;SDS011;34437;-33.956;151.076;2022-10-20T06:31:47;2.38;;;0.90;;
48647;SDS011;34437;-33.956;151.076;2022-10-20T06:34:15;1.00;;;0.60;;
48647;SDS011;34437;-33.956;151.076;2022-10-20T06:36:40;1.58;;;0.70;;
48647;SDS011;34437;-33.956;151.076;2022-10-20T06:39:04;1.73;;;0.65;;
48647;SDS011;34437;-33.956;151.076;2022-10-20T06:41:27;1.02;;;0.40;;
48647;SDS011;34437;-33.956;151.076;2022-10-20T06:43:51;10.85;;;0.80;;
48647;SDS011;34437;-33.956;151.076;2022-10-20T06:46:18;2.63;;;0.50;;
48647;SDS011;34437;-33.956;151.076;2022-10-20T06:48:41;1.08;;;0.63;;
48647;SDS011;34437;-33.956;151.076;2022-10-20T06:51:05;2.55;;;0.63;;
48647;SDS011;34437;-33.956;151.076;2022-10-20T06:53:30;1.52;;;0.50;;
48647;SDS011;34437;-33.956;151.076;2022-10-20T06:58:19;0.50;;;0.50;;
48647;SDS011;34437;-33.956;151.076;2022-10-20T07:00:41;2.25;;;0.50;;
48647;SDS011;34437;-33.956;151.076;2022-10-20T07:03:04;0.60;;;0.50;;
48647;SDS011;34437;-33.956;151.076;2022-10-20T07:05:26;2.10;;;0.38;;
48647;SDS011;34437;-33.956;151.076;2022-10-20T07:07:52;2.13;;;0.53;;
48647;SDS011;34437;-33.956;151.076;2022-10-20T07:10:15;2.25;;;0.50;;
48647;SDS011;34437;-33.956;151.076;2022-10-20T07:12:37;1.02;;;0.43;;
48647;SDS011;34437;-33.956;151.076;2022-10-20T07:15:00;1.63;;;0.50;;
48647;SDS011;34437;-33.956;151.076;2022-10-20T07:17:22;1.17;;;0.47;;
48647;SDS011;34437;-33.956;151.076;2022-10-20T07:19:45;1.65;;;0.50;;
48647;SDS011;34437;-33.956;151.076;2022-10-20T07:22:07;1.65;;;0.45;;
48647;SDS011;34437;-33.956;151.076;2022-10-20T07:24:30;1.65;;;0.80;;
48647;SDS011;34437;-33.956;151.076;2022-10-20T07:26:53;2.08;;;0.65;;
48647;SDS011;34437;-33.956;151.076;2022-10-20T07:29:15;1.23;;;0.77;;
48647;SDS011;34437;-33.956;151.076;2022-10-20T07:31:43;1.95;;;0.77;;
48647;SDS011;34437;-33.956;151.076;2022-10-20T07:34:08;1.63;;;0.43;;
48647;SDS011;34437;-33.956;151.076;2022-10-20T07:36:32;2.63;;;0.65;;
48647;SDS011;34437;-33.956;151.076;2022-10-20T07:38:56;2.08;;;0.60;;
48647;SDS011;34437;-33.956;151.076;2022-10-20T07:41:20;3.95;;;0.60;;
48647;SDS011;34437;-33.956;151.076;2022-10-20T07:43:43;0.93;;;0.40;;
48647;SDS011;34437;-33.956;151.076;2022-10-20T07:46:06;0.80;;;0.43;;
48647;SDS011;34437;-33.956;151.076;2022-10-20T07:50:53;0.85;;;0.47;;
48647;SDS011;34437;-33.956;151.076;2022-10-20T07:53:32;0.32;;;0.32;;
48647;SDS011;34437;-33.956;151.076;2022-10-20T07:55:55;1.67;;;0.50;;
48647;SDS011;34437;-33.956;151.076;2022-10-20T07:58:17;1.02;;;0.40;;
48647;SDS011;34437;-33.956;151.076;2022-10-20T08:00:40;4.95;;;0.65;;
48647;SDS011;34437;-33.956;151.076;2022-10-20T08:03:03;0.80;;;0.50;;
48647;SDS011;34437;-33.956;151.076;2022-10-20T08:05:25;0.77;;;0.40;;
48647;SDS011;34437;-33.956;151.076;2022-10-20T08:07:49;0.85;;;0.47;;
48647;SDS011;34437;-33.956;151.076;2022-10-20T08:10:12;1.42;;;0.47;;
48647;SDS011;34437;-33.956;151.076;2022-10-20T08:12:34;1.98;;;0.50;;
48647;SDS011;34437;-33.956;151.076;2022-10-20T08:14:58;1.17;;;0.32;;
48647;SDS011;34437;-33.956;151.076;2022-10-20T08:17:20;0.57;;;0.35;;
48647;SDS011;34437;-33.956;151.076;2022-10-20T08:19:43;0.68;;;0.30;;
48647;SDS011;34437;-33.956;151.076;2022-10-20T08:22:05;0.35;;;0.35;;
48647;SDS011;34437;-33.956;151.076;2022-10-20T08:24:28;0.30;;;0.30;;
48647;SDS011;34437;-33.956;151.076;2022-10-20T08:26:51;2.25;;;0.50;;
48647;SDS011;34437;-33.956;151.076;2022-10-20T08:29:14;0.85;;;0.40;;
48647;SDS011;34437;-33.956;151.076;2022-10-20T08:31:37;2.53;;;0.60;;
48647;SDS011;34437;-33.956;151.076;2022-10-20T08:34:00;8.20;;;0.73;;
48647;SDS011;34437;-33.956;151.076;2022-10-20T08:36:22;0.90;;;0.45;;
48647;SDS011;34437;-33.956;151.076;2022-10-20T08:38:45;0.60;;;0.35;;
48647;SDS011;34437;-33.956;151.076;2022-10-20T08:41:18;0.88;;;0.60;;
48647;SDS011;34437;-33.956;151.076;2022-10-20T08:43:42;2.22;;;1.02;;
48647;SDS011;34437;-33.956;151.076;2022-10-20T08:46:10;0.93;;;0.57;;
48647;SDS011;34437;-33.956;151.076;2022-10-20T08:48:38;1.42;;;0.68;;
48647;SDS011;34437;-33.956;151.076;2022-10-20T08:51:00;3.80;;;0.80;;
48647;SDS011;34437;-33.956;151.076;2022-10-20T08:53:23;5.50;;;0.90;;
48647;SDS011;34437;-33.956;151.076;2022-10-20T08:55:47;2.13;;;0.90;;
48647;SDS011;34437;-33.956;151.076;2022-10-20T08:58:14;1.60;;;0.80;;
48647;SDS011;34437;-33.956;151.076;2022-10-20T09:00:40;4.28;;;1.33;;
48647;SDS011;34437;-33.956;151.076;2022-10-20T09:03:12;3.03;;;1.20;;
48647;SDS011;34437;-33.956;151.076;2022-10-20T09:05:35;2.47;;;1.05;;
48647;SDS011;34437;-33.956;151.076;2022-10-20T09:08:00;3.72;;;1.30;;
48647;SDS011;34437;-33.956;151.076;2022-10-20T09:10:34;4.60;;;1.40;;
48647;SDS011;34437;-33.956;151.076;2022-10-20T09:12:57;2.53;;;1.27;;
48647;SDS011;34437;-33.956;151.076;2022-10-20T09:15:20;3.95;;;1.38;;
48647;SDS011;34437;-33.956;151.076;2022-10-20T09:17:53;6.25;;;1.40;;
48647;SDS011;34437;-33.956;151.076;2022-10-20T09:20:29;3.20;;;1.40;;
48647;SDS011;34437;-33.956;151.076;2022-10-20T09:23:04;5.28;;;1.35;;
48647;SDS011;34437;-33.956;151.076;2022-10-20T09:25:29;2.10;;;1.13;;
48647;SDS011;34437;-33.956;151.076;2022-10-20T09:27:53;7.80;;;1.88;;
48647;SDS011;34437;-33.956;151.076;2022-10-20T09:32:41;4.75;;;1.30;;
48647;SDS011;34437;-33.956;151.076;2022-10-20T09:35:11;3.83;;;1.15;;
48647;SDS011;34437;-33.956;151.076;2022-10-20T09:37:54;7.20;;;1.35;;
48647;SDS011;34437;-33.956;151.076;2022-10-20T09:40:20;3.97;;;1.20;;
48647;SDS011;34437;-33.956;151.076;2022-10-20T09:42:48;5.15;;;1.58;;
48647;SDS011;34437;-33.956;151.076;2022-10-20T09:47:58;5.82;;;1.52;;
48647;SDS011;34437;-33.956;151.076;2022-10-20T09:50:29;3.13;;;1.27;;
48647;SDS011;34437;-33.956;151.076;2022-10-20T09:52:55;3.50;;;1.30;;
48647;SDS011;34437;-33.956;151.076;2022-10-20T09:55:38;3.05;;;1.30;;
48647;SDS011;34437;-33.956;151.076;2022-10-20T09:58:14;4.60;;;1.75;;
48647;SDS011;34437;-33.956;151.076;2022-10-20T10:00:46;7.95;;;2.35;;
48647;SDS011;34437;-33.956;151.076;2022-10-20T10:03:24;23.90;;;2.58;;
48647;SDS011;34437;-33.956;151.076;2022-10-20T10:05:51;18.30;;;2.50;;
48647;SDS011;34437;-33.956;151.076;2022-10-20T10:08:15;17.65;;;3.30;;
48647;SDS011;34437;-33.956;151.076;2022-10-20T10:10:38;29.90;;;3.40;;
48647;SDS011;34437;-33.956;151.076;2022-10-20T10:13:01;13.10;;;2.78;;
48647;SDS011;34437;-33.956;151.076;2022-10-20T10:17:49;16.83;;;2.83;;
48647;SDS011;34437;-33.956;151.076;2022-10-20T10:22:36;11.45;;;2.88;;
48647;SDS011;34437;-33.956;151.076;2022-10-20T10:24:59;9.18;;;1.88;;
48647;SDS011;34437;-33.956;151.076;2022-10-20T10:27:26;33.93;;;3.00;;
48647;SDS011;34437;-33.956;151.076;2022-10-20T10:32:48;54.38;;;5.63;;
48647;SDS011;34437;-33.956;151.076;2022-10-20T10:37:54;16.80;;;3.70;;
48647;SDS011;34437;-33.956;151.076;2022-10-20T10:40:19;20.38;;;3.88;;
48647;SDS011;34437;-33.956;151.076;2022-10-20T10:43:03;26.65;;;3.95;;
48647;SDS011;34437;-33.956;151.076;2022-10-20T10:48:29;16.27;;;3.17;;
48647;SDS011;34437;-33.956;151.076;2022-10-20T10:51:04;16.73;;;3.38;;
48647;SDS011;34437;-33.956;151.076;2022-10-20T10:59:02;11.77;;;2.20;;
48647;SDS011;34437;-33.956;151.076;2022-10-20T11:04:28;16.50;;;3.17;;
48647;SDS011;34437;-33.956;151.076;2022-10-20T11:07:15;12.15;;;2.63;;
48647;SDS011;34437;-33.956;151.076;2022-10-20T11:10:02;22.67;;;2.40;;
48647;SDS011;34437;-33.956;151.076;2022-10-20T11:12:41;10.98;;;2.58;;
48647;SDS011;34437;-33.956;151.076;2022-10-20T11:15:20;8.98;;;2.55;;
48647;SDS011;34437;-33.956;151.076;2022-10-20T11:17:52;16.05;;;2.38;;
48647;SDS011;34437;-33.956;151.076;2022-10-20T11:20:57;5.03;;;2.05;;
48647;SDS011;34437;-33.956;151.076;2022-10-20T11:26:12;8.85;;;2.00;;
48647;SDS011;34437;-33.956;151.076;2022-10-20T11:28:50;8.50;;;2.20;;
48647;SDS011;34437;-33.956;151.076;2022-10-20T11:31:25;7.13;;;1.90;;
48647;SDS011;34437;-33.956;151.076;2022-10-20T11:36:32;4.70;;;2.10;;
48647;SDS011;34437;-33.956;151.076;2022-10-20T11:38:59;5.45;;;1.55;;
48647;SDS011;34437;-33.956;151.076;2022-10-20T11:44:01;7.97;;;1.90;;
48647;SDS011;34437;-33.956;151.076;2022-10-20T11:48:52;8.30;;;1.75;;
48647;SDS011;34437;-33.956;151.076;2022-10-20T11:51:18;4.90;;;2.05;;
48647;SDS011;34437;-33.956;151.076;2022-10-20T11:56:51;6.35;;;1.92;;
48647;SDS011;34437;-33.956;151.076;2022-10-20T12:04:29;10.43;;;1.85;;
48647;SDS011;34437;-33.956;151.076;2022-10-20T12:07:19;4.10;;;1.40;;
48647;SDS011;34437;-33.956;151.076;2022-10-20T12:10:02;3.00;;;1.65;;
48647;SDS011;34437;-33.956;151.076;2022-10-20T12:15:20;6.95;;;1.65;;
48647;SDS011;34437;-33.956;151.076;2022-10-20T12:17:45;12.98;;;1.83;;
48647;SDS011;34437;-33.956;151.076;2022-10-20T12:22:42;11.30;;;2.28;;
48647;SDS011;34437;-33.956;151.076;2022-10-20T12:27:27;6.57;;;1.83;;
48647;SDS011;34437;-33.956;151.076;2022-10-20T12:29:52;5.88;;;1.48;;
48647;SDS011;34437;-33.956;151.076;2022-10-20T12:35:01;5.20;;;1.52;;
48647;SDS011;34437;-33.956;151.076;2022-10-20T12:37:53;8.27;;;2.15;;
48647;SDS011;34437;-33.956;151.076;2022-10-20T12:40:25;3.60;;;1.92;;
48647;SDS011;34437;-33.956;151.076;2022-10-20T12:42:54;6.38;;;1.48;;
48647;SDS011;34437;-33.956;151.076;2022-10-20T12:47:40;3.03;;;1.42;;
48647;SDS011;34437;-33.956;151.076;2022-10-20T12:50:27;6.32;;;1.80;;
48647;SDS011;34437;-33.956;151.076;2022-10-20T12:55:56;4.35;;;1.85;;
48647;SDS011;34437;-33.956;151.076;2022-10-20T12:58:30;5.45;;;2.03;;
48647;SDS011;34437;-33.956;151.076;2022-10-20T13:03:37;2.65;;;1.27;;
48647;SDS011;34437;-33.956;151.076;2022-10-20T13:06:01;6.28;;;2.10;;
48647;SDS011;34437;-33.956;151.076;2022-10-20T13:08:42;3.03;;;1.40;;
48647;SDS011;34437;-33.956;151.076;2022-10-20T13:11:38;5.40;;;1.75;;
48647;SDS011;34437;-33.956;151.076;2022-10-20T13:16:56;3.35;;;1.42;;
48647;SDS011;34437;-33.956;151.076;2022-10-20T13:25:13;5.00;;;1.17;;
48647;SDS011;34437;-33.956;151.076;2022-10-20T13:27:48;4.55;;;1.70;;
48647;SDS011;34437;-33.956;151.076;2022-10-20T13:30:13;4.03;;;1.67;;
48647;SDS011;34437;-33.956;151.076;2022-10-20T13:35:29;3.60;;;1.55;;
48647;SDS011;34437;-33.956;151.076;2022-10-20T13:38:29;5.70;;;1.73;;
48647;SDS011;34437;-33.956;151.076;2022-10-20T13:41:04;3.38;;;1.60;;
48647;SDS011;34437;-33.956;151.076;2022-10-20T13:52:11;5.88;;;1.58;;
48647;SDS011;34437;-33.956;151.076;2022-10-20T13:54:35;6.97;;;1.40;;
48647;SDS011;34437;-33.956;151.076;2022-10-20T13:57:04;5.20;;;1.60;;
48647;SDS011;34437;-33.956;151.076;2022-10-20T13:59:28;4.57;;;1.27;;
48647;SDS011;34437;-33.956;151.076;2022-10-20T14:04:37;6.43;;;1.88;;
48647;SDS011;34437;-33.956;151.076;2022-10-20T14:07:02;3.38;;;1.50;;
48647;SDS011;34437;-33.956;151.076;2022-10-20T14:09:28;8.35;;;1.77;;
48647;SDS011;34437;-33.956;151.076;2022-10-20T14:11:58;3.28;;;1.45;;
48647;SDS011;34437;-33.956;151.076;2022-10-20T14:14:45;4.75;;;1.83;;
48647;SDS011;34437;-33.956;151.076;2022-10-20T14:17:07;4.57;;;1.60;;
48647;SDS011;34437;-33.956;151.076;2022-10-20T14:22:16;3.25;;;1.40;;
48647;SDS011;34437;-33.956;151.076;2022-10-20T14:24:45;4.32;;;1.50;;
48647;SDS011;34437;-33.956;151.076;2022-10-20T14:27:20;2.58;;;1.30;;
48647;SDS011;34437;-33.956;151.076;2022-10-20T14:30:04;3.10;;;1.50;;
48647;SDS011;34437;-33.956;151.076;2022-10-20T14:32:28;2.67;;;1.33;;
48647;SDS011;34437;-33.956;151.076;2022-10-20T14:35:01;3.92;;;1.42;;
48647;SDS011;34437;-33.956;151.076;2022-10-20T14:37:27;2.70;;;1.35;;
48647;SDS011;34437;-33.956;151.076;2022-10-20T14:40:04;4.68;;;1.42;;
48647;SDS011;34437;-33.956;151.076;2022-10-20T14:42:32;3.38;;;1.50;;
48647;SDS011;34437;-33.956;151.076;2022-10-20T14:44:55;3.70;;;1.40;;
48647;SDS011;34437;-33.956;151.076;2022-10-20T14:47:19;2.58;;;1.30;;
48647;SDS011;34437;-33.956;151.076;2022-10-20T14:49:42;2.53;;;1.30;;
48647;SDS011;34437;-33.956;151.076;2022-10-20T14:54:41;3.38;;;1.50;;
48647;SDS011;34437;-33.956;151.076;2022-10-20T14:59:50;3.67;;;1.38;;
48647;SDS011;34437;-33.956;151.076;2022-10-20T15:02:32;4.30;;;1.65;;
48647;SDS011;34437;-33.956;151.076;2022-10-20T15:05:20;2.20;;;1.20;;
48647;SDS011;34437;-33.956;151.076;2022-10-20T15:07:46;2.25;;;1.50;;
48647;SDS011;34437;-33.956;151.076;2022-10-20T15:10:13;2.50;;;1.48;;
48647;SDS011;34437;-33.956;151.076;2022-10-20T15:12:37;2.97;;;1.63;;
48647;SDS011;34437;-33.956;151.076;2022-10-20T15:15:06;2.97;;;1.40;;
48647;SDS011;34437;-33.956;151.076;2022-10-20T15:17:42;3.90;;;1.48;;
48647;SDS011;34437;-33.956;151.076;2022-10-20T15:22:53;4.65;;;1.95;;
48647;SDS011;34437;-33.956;151.076;2022-10-20T15:25:16;6.47;;;1.60;;
48647;SDS011;34437;-33.956;151.076;2022-10-20T15:27:39;4.97;;;1.40;;
48647;SDS011;34437;-33.956;151.076;2022-10-20T15:30:02;5.25;;;1.75;;
48647;SDS011;34437;-33.956;151.076;2022-10-20T15:32:24;3.53;;;1.42;;
48647;SDS011;34437;-33.956;151.076;2022-10-20T15:34:47;2.92;;;1.42;;
48647;SDS011;34437;-33.956;151.076;2022-10-20T15:37:09;3.00;;;1.48;;
48647;SDS011;34437;-33.956;151.076;2022-10-20T15:39:32;2.10;;;1.27;;
48647;SDS011;34437;-33.956;151.076;2022-10-20T15:41:55;3.90;;;1.23;;
48647;SDS011;34437;-33.956;151.076;2022-10-20T15:44:18;5.13;;;1.42;;
48647;SDS011;34437;-33.956;151.076;2022-10-20T15:46:42;2.90;;;1.35;;
48647;SDS011;34437;-33.956;151.076;2022-10-20T15:49:07;3.03;;;1.42;;
48647;SDS011;34437;-33.956;151.076;2022-10-20T15:51:30;3.42;;;1.40;;
48647;SDS011;34437;-33.956;151.076;2022-10-20T15:53:54;3.15;;;1.30;;
48647;SDS011;34437;-33.956;151.076;2022-10-20T15:56:17;4.25;;;1.63;;
48647;SDS011;34437;-33.956;151.076;2022-10-20T15:58:40;3.15;;;1.42;;
48647;SDS011;34437;-33.956;151.076;2022-10-20T16:01:03;4.43;;;1.25;;
48647;SDS011;34437;-33.956;151.076;2022-10-20T16:03:25;3.38;;;1.45;;
48647;SDS011;34437;-33.956;151.076;2022-10-20T16:05:48;3.28;;;1.08;;
48647;SDS011;34437;-33.956;151.076;2022-10-20T16:08:10;3.08;;;1.42;;
48647;SDS011;34437;-33.956;151.076;2022-10-20T16:10:33;4.32;;;1.40;;
48647;SDS011;34437;-33.956;151.076;2022-10-20T16:12:56;2.55;;;1.20;;